ESST/TYF METAR and TAF weather

Enter ICAO airport designator
Station Type Date Time Source
ESST METAR 2021/09/23 18:50 UTC NOAA

ESST 231850Z AUTO 31011KT 9999 NCD 10/07 Q0992


Station Type Date Time Source
ESST Decoded METAR 2021/09/23 18:50 UTC NOAA

Station name not available
Sep 23, 2021 - 02:50 PM EDT / 2021.09.23 1850 UTC
Wind: from the NW (310 degrees) at 13 MPH (11 KT):0
Visibility: greater than 7 mile(s):0
Temperature: 50 F (10 C)
Dew Point: 44 F (7 C)
Relative Humidity: 81%
Pressure (altimeter): 29.29 in. Hg (0992 hPa)
ob: ESST 231850Z AUTO 31011KT 9999 NCD 10/07 Q0992
cycle: 19

Station Type Date Time Source
ESST TAF UTC NOAA

Error!

Example: see airport list